Time;durP1;ratioP1;P1;durP2;ratioP2;P2;SDS_P1;SDS_P2;PMS_P1;PMS_P2;Temp;Humidity;BMP_temperature;BMP_pressure;BME280_temperature;BME280_humidity;BME280_pressure;Samples;Min_cycle;Max_cycle;Signal;HPM_P1;HPM_P2
2022/12/26 00:00:37;;;;;;;9.25;6.18;;;;;;;-144.32;100.00;68061.97;10344623;28;20050;-77
2022/12/26 00:05:38;;;;;;;6.63;5.72;;;;;;;-144.32;100.00;68061.97;10354719;28;20438;-76
2022/12/26 00:10:38;;;;;;;7.47;5.50;;;;;;;-144.32;100.00;68061.97;10354380;28;20046;-76
2022/12/26 00:15:40;;;;;;;7.85;5.47;;;;;;;-144.32;100.00;68061.97;10346730;28;20130;-77
2022/12/26 00:20:41;;;;;;;7.28;5.60;;;;;;;-144.32;100.00;68061.97;10370372;28;20732;-77
2022/12/26 00:25:42;;;;;;;7.43;5.20;;;;;;;-144.32;100.00;68061.97;10353479;28;20045;-77
2022/12/26 00:30:43;;;;;;;6.50;5.07;;;;;;;-144.32;100.00;68061.97;10368334;28;20046;-78
2022/12/26 00:35:44;;;;;;;6.57;5.38;;;;;;;-144.32;100.00;68061.97;10342851;28;20121;-78
2022/12/26 00:40:45;;;;;;;6.10;4.82;;;;;;;-144.32;100.00;68061.97;10337672;28;20069;-77
2022/12/26 00:45:48;;;;;;;6.32;4.88;;;;;;;-144.32;100.00;68061.97;10349467;28;20057;-77
2022/12/26 00:50:49;;;;;;;;;;;;;;;-144.32;100.00;68061.97;10351537;28;20046;-75
2022/12/26 00:55:50;;;;;;;5.20;4.28;;;;;;;-144.32;100.00;68061.97;10343188;28;20303;-76
2022/12/26 01:00:51;;;;;;;7.18;4.40;;;;;;;-144.32;100.00;68061.97;10348319;28;20041;-77
2022/12/26 01:05:51;;;;;;;5.78;4.65;;;;;;;-144.32;100.00;68061.97;10348738;28;20052;-76
2022/12/26 01:10:52;;;;;;;6.15;4.55;;;;;;;-144.32;100.00;68061.97;10346897;28;20486;-76
2022/12/26 01:15:52;;;;;;;8.00;4.57;;;;;;;-144.32;100.00;68061.97;10344650;28;20423;-78
2022/12/26 01:20:58;;;;;;;6.20;4.20;;;;;;;-144.32;100.00;68061.97;10350336;28;20038;-77
2022/12/26 01:25:59;;;;;;;5.07;4.00;;;;;;;-144.32;100.00;68061.97;10349184;28;20444;-78
2022/12/26 01:31:04;;;;;;;4.95;4.38;;;;;;;-144.32;100.00;68061.97;10353908;28;20084;-77
2022/12/26 01:36:05;;;;;;;8.70;4.13;;;;;;;-144.32;100.00;68061.97;10366772;28;20045;-79
2022/12/26 01:41:18;;;;;;;4.90;4.40;;;;;;;-144.32;100.00;68061.97;10346662;28;20042;-76
2022/12/26 01:46:24;;;;;;;4.57;3.95;;;;;;;-144.32;100.00;68061.97;10366581;28;20050;-83
2022/12/26 01:51:30;;;;;;;4.25;3.40;;;;;;;-144.32;100.00;68061.97;10356405;28;20509;-79
2022/12/26 01:56:36;;;;;;;5.85;3.65;;;;;;;-144.32;100.00;68061.97;10362252;28;20133;-77
2022/12/26 02:01:40;;;;;;;5.53;3.70;;;;;;;-144.32;100.00;68061.97;10351129;28;20062;-77
2022/12/26 02:06:41;;;;;;;5.20;3.97;;;;;;;-144.32;100.00;68061.97;10351235;28;20073;-76
2022/12/26 02:11:47;;;;;;;5.53;3.97;;;;;;;-144.32;100.00;68061.97;10355790;28;20049;-78
2022/12/26 02:16:48;;;;;;;4.70;3.85;;;;;;;-144.32;100.00;68061.97;10381736;28;20057;-76
2022/12/26 02:22:23;;;;;;;4.45;3.15;;;;;;;-144.32;100.00;68061.97;10368293;28;20046;-75
2022/12/26 02:27:58;;;;;;;4.63;3.28;;;;;;;-144.32;100.00;68061.97;10343074;28;20078;-77
2022/12/26 02:33:18;;;;;;;5.57;3.70;;;;;;;-144.32;100.00;68061.97;10348134;28;20050;-77
2022/12/26 02:38:41;;;;;;;6.88;4.03;;;;;;;-144.32;100.00;68061.97;10355624;28;20081;-77
2022/12/26 02:43:41;;;;;;;7.50;4.15;;;;;;;-144.32;100.00;68061.97;10357508;28;20046;-77
2022/12/26 02:49:04;;;;;;;7.13;3.95;;;;;;;-144.32;100.00;68061.97;10352923;28;20049;-76
2022/12/26 03:21:43;;;;;;;4.97;4.15;;;;;;;-144.32;100.00;68061.97;10375410;28;20033;-77
2022/12/26 03:26:52;;;;;;;5.25;4.32;;;;;;;-144.32;100.00;68061.97;10351426;28;20046;-77
2022/12/26 03:31:53;;;;;;;4.53;3.70;;;;;;;-144.32;100.00;68061.97;10344333;28;20042;-78
2022/12/26 03:37:17;;;;;;;4.43;3.75;;;;;;;-144.32;100.00;68061.97;10352141;28;20042;-76
2022/12/26 04:41:34;;;;;;;7.57;4.50;;;;;;;-144.32;100.00;68061.97;10346434;28;20794;-76
2022/12/26 04:53:48;;;;;;;4.40;3.55;;;;;;;-144.32;100.00;68061.97;10351612;28;20061;-76
2022/12/26 04:58:49;;;;;;;4.85;3.75;;;;;;;-144.32;100.00;68061.97;10363842;28;20046;-76
2022/12/26 05:14:31;;;;;;;4.10;3.50;;;;;;;-144.32;100.00;68061.97;10345308;28;20050;-77
2022/12/26 05:30:11;;;;;;;3.85;3.45;;;;;;;-144.32;100.00;68061.97;10354377;28;20061;-77
2022/12/26 05:35:11;;;;;;;5.55;3.85;;;;;;;-144.32;100.00;68061.97;10375078;28;20104;-76
2022/12/26 05:40:12;;;;;;;4.75;3.47;;;;;;;-144.32;100.00;68061.97;10355472;28;20053;-75
2022/12/26 05:45:12;;;;;;;4.43;3.35;;;;;;;-144.32;100.00;68061.97;10362364;28;20050;-77
2022/12/26 05:50:13;;;;;;;6.00;3.40;;;;;;;-144.32;100.00;68061.97;10353709;28;20037;-77
2022/12/26 05:55:14;;;;;;;4.93;3.22;;;;;;;-144.32;100.00;68061.97;10371146;28;20133;-76
2022/12/26 06:00:15;;;;;;;13.00;3.60;;;;;;;-144.32;100.00;68061.97;10360343;28;20088;-76
2022/12/26 06:05:15;;;;;;;5.47;3.78;;;;;;;-144.32;100.00;68061.97;10351255;28;20757;-75
2022/12/26 06:10:16;;;;;;;5.38;3.78;;;;;;;-144.32;100.00;68061.97;10355383;28;20054;-76
2022/12/26 06:15:17;;;;;;;5.63;3.83;;;;;;;-144.32;100.00;68061.97;10350481;28;20135;-77
2022/12/26 06:20:17;;;;;;;4.22;3.25;;;;;;;-144.32;100.00;68061.97;10358383;28;20119;-77
2022/12/26 06:25:18;;;;;;;6.93;3.75;;;;;;;-144.32;100.00;68061.97;10350936;28;20057;-78
2022/12/26 06:30:18;;;;;;;5.05;3.95;;;;;;;-144.32;100.00;68061.97;10348684;28;20576;-77
2022/12/26 06:35:19;;;;;;;5.32;4.00;;;;;;;-144.32;100.00;68061.97;10366240;28;20048;-77
2022/12/26 06:40:19;;;;;;;5.88;4.20;;;;;;;-144.32;100.00;68061.97;10353301;28;20475;-76
2022/12/26 06:45:20;;;;;;;3.92;3.30;;;;;;;-144.32;100.00;68061.97;10354356;28;20048;-74
2022/12/26 06:50:22;;;;;;;3.97;2.97;;;;;;;-144.32;100.00;68061.97;10349347;28;20061;-76
2022/12/26 06:55:22;;;;;;;3.53;3.22;;;;;;;-144.32;100.00;68061.97;10347457;28;20456;-75
2022/12/26 07:00:23;;;;;;;5.60;3.70;;;;;;;-144.32;100.00;68061.97;10352075;28;20128;-77
2022/12/26 07:05:24;;;;;;;4.60;3.13;;;;;;;-144.32;100.00;68061.97;10356546;28;20048;-82
2022/12/26 07:10:24;;;;;;;4.85;3.55;;;;;;;-144.32;100.00;68061.97;10355630;28;20660;-78
2022/12/26 07:15:25;;;;;;;5.20;3.33;;;;;;;-144.32;100.00;68061.97;10350981;28;20595;-79
2022/12/26 07:20:26;;;;;;;5.43;3.25;;;;;;;-144.32;100.00;68061.97;10352096;28;20057;-78
2022/12/26 07:25:26;;;;;;;3.58;3.20;;;;;;;-144.32;100.00;68061.97;10345963;28;20053;-76
2022/12/26 07:30:27;;;;;;;4.40;3.65;;;;;;;-144.32;100.00;68061.97;10357243;28;20048;-77
2022/12/26 07:35:27;;;;;;;5.80;3.60;;;;;;;-144.32;100.00;68061.97;10353064;28;20076;-77
2022/12/26 07:40:28;;;;;;;5.18;2.90;;;;;;;-144.32;100.00;68061.97;10350480;28;20060;-76
2022/12/26 07:45:30;;;;;;;4.63;3.00;;;;;;;-144.32;100.00;68061.97;10353220;28;20428;-77
2022/12/26 07:50:30;;;;;;;3.55;3.05;;;;;;;-144.32;100.00;68061.97;10348642;28;20561;-77
2022/12/26 07:55:31;;;;;;;4.47;3.38;;;;;;;-144.32;100.00;68061.97;10345180;28;20061;-75
2022/12/26 08:00:31;;;;;;;3.53;2.85;;;;;;;-144.32;100.00;68061.97;10340709;28;20454;-75
2022/12/26 08:05:32;;;;;;;4.55;3.22;;;;;;;-144.32;100.00;68061.97;10354792;28;20053;-75
2022/12/26 08:10:33;;;;;;;4.28;3.00;;;;;;;-144.32;100.00;68061.97;10348770;28;20115;-76
2022/12/26 08:15:33;;;;;;;2.83;2.47;;;;;;;-144.32;100.00;68061.97;10351200;28;20053;-76
2022/12/26 08:20:35;;;;;;;5.55;3.10;;;;;;;-144.32;100.00;68061.97;10355619;28;20360;-76
2022/12/26 08:25:36;;;;;;;4.10;2.97;;;;;;;-144.32;100.00;68061.97;10344566;28;20060;-77
2022/12/26 08:30:39;;;;;;;4.18;3.47;;;;;;;-144.32;100.00;68061.97;10353200;28;20049;-77
2022/12/26 08:35:42;;;;;;;4.82;3.30;;;;;;;-144.32;100.00;68061.97;10349530;28;20050;-75
2022/12/26 08:40:43;;;;;;;6.72;3.97;;;;;;;-144.32;100.00;68061.97;10349419;28;20044;-76
2022/12/26 08:45:43;;;;;;;4.75;4.00;;;;;;;-144.32;100.00;68061.97;10346976;28;20790;-74
2022/12/26 08:50:45;;;;;;;4.68;3.10;;;;;;;-144.32;100.00;68061.97;10352412;28;20052;-78
2022/12/26 08:55:45;;;;;;;4.35;3.30;;;;;;;-144.32;100.00;68061.97;10342844;28;20661;-76
2022/12/26 09:00:46;;;;;;;4.40;3.40;;;;;;;-144.32;100.00;68061.97;10347236;28;20054;-77
2022/12/26 09:05:47;;;;;;;6.40;3.35;;;;;;;-144.32;100.00;68061.97;10355843;28;20133;-77
2022/12/26 09:10:47;;;;;;;4.50;3.50;;;;;;;-144.32;100.00;68061.97;10349451;28;20124;-77
2022/12/26 09:15:48;;;;;;;4.78;3.22;;;;;;;-144.32;100.00;68061.97;10353732;28;20054;-79
2022/12/26 09:20:49;;;;;;;3.75;3.10;;;;;;;-144.32;100.00;68061.97;10355982;28;20052;-77
2022/12/26 09:25:49;;;;;;;5.82;3.60;;;;;;;-144.32;100.00;68061.97;10352195;28;20053;-79
2022/12/26 09:30:50;;;;;;;4.90;3.33;;;;;;;-144.32;100.00;68061.97;10345043;28;20588;-79
2022/12/26 09:35:51;;;;;;;5.95;4.38;;;;;;;-144.32;100.00;68061.97;10353284;28;20054;-80
2022/12/26 09:41:32;;;;;;;5.03;3.30;;;;;;;-144.32;100.00;68061.97;10386542;28;20041;-78
2022/12/26 09:46:52;;;;;;;4.82;3.50;;;;;;;-144.32;100.00;68061.97;10358651;28;20060;-80
2022/12/26 09:57:20;;;;;;;4.40;3.65;;;;;;;-144.32;100.00;68061.97;10367823;28;20059;-80
2022/12/26 10:02:24;;;;;;;7.68;5.50;;;;;;;-144.32;100.00;68061.97;10355573;28;20123;-81
2022/12/26 10:07:47;;;;;;;7.47;4.43;;;;;;;-144.32;100.00;68061.97;10351668;28;20057;-79
2022/12/26 10:13:10;;;;;;;6.68;4.80;;;;;;;-144.32;100.00;68061.97;10349867;28;20049;-79
2022/12/26 10:18:21;;;;;;;12.77;7.63;;;;;;;-144.32;100.00;68061.97;10360546;28;20048;-79
2022/12/26 10:23:30;;;;;;;5.90;4.38;;;;;;;-144.32;100.00;68061.97;10355371;28;20398;-76
2022/12/26 10:28:46;;;;;;;8.93;4.82;;;;;;;-144.32;100.00;68061.97;10364762;28;20405;-77
2022/12/26 10:33:53;;;;;;;7.00;5.10;;;;;;;-144.32;100.00;68061.97;10362541;28;20595;-77
2022/12/26 10:38:58;;;;;;;10.23;5.03;;;;;;;-144.32;100.00;68061.97;10351657;28;20041;-76
2022/12/26 10:44:00;;;;;;;7.57;4.68;;;;;;;-144.32;100.00;68061.97;10350661;28;20505;-76
2022/12/26 10:49:01;;;;;;;6.95;5.43;;;;;;;-144.32;100.00;68061.97;10355564;28;20041;-79
2022/12/26 10:54:01;;;;;;;8.73;4.90;;;;;;;-144.32;100.00;68061.97;10355012;28;20050;-77
2022/12/26 10:59:03;;;;;;;6.43;4.60;;;;;;;-144.32;100.00;68061.97;10349411;28;20145;-78
2022/12/26 11:04:22;;;;;;;7.70;4.95;;;;;;;-144.32;100.00;68061.97;10359012;28;20103;-76
2022/12/26 11:09:44;;;;;;;7.53;4.18;;;;;;;-144.32;100.00;68061.97;10353967;28;20041;-77
2022/12/26 11:14:45;;;;;;;5.40;3.63;;;;;;;-144.32;100.00;68061.97;10349682;28;20050;-77
2022/12/26 11:19:46;;;;;;;7.88;4.78;;;;;;;-144.32;100.00;68061.97;10370106;28;20043;-79
2022/12/26 11:25:08;;;;;;;5.18;3.40;;;;;;;-144.32;100.00;68061.97;10385722;28;20514;-74
2022/12/26 11:30:25;;;;;;;7.20;4.60;;;;;;;-144.32;100.00;68061.97;10373735;28;20046;-77
2022/12/26 11:35:35;;;;;;;6.13;3.13;;;;;;;-144.32;100.00;68061.97;10396637;28;20042;-77
2022/12/26 11:41:30;;;;;;;4.40;2.50;;;;;;;-144.32;100.00;68061.97;10362349;28;20053;-77
2022/12/26 11:45:59;;;;;;;2.80;2.20;;;;;;;-144.32;100.00;68061.97;10348318;28;20141;-75
2022/12/26 11:51:00;;;;;;;3.95;3.25;;;;;;;-144.32;100.00;68061.97;10360781;28;20797;-79
2022/12/26 11:56:04;;;;;;;9.65;5.43;;;;;;;-144.32;100.00;68061.97;10353168;28;20052;-76
2022/12/26 12:01:11;;;;;;;12.65;6.53;;;;;;;-144.32;100.00;68061.97;10347168;28;20042;-77
2022/12/26 12:06:27;;;;;;;4.80;2.47;;;;;;;-144.32;100.00;68061.97;10347153;28;20057;-77
2022/12/26 12:11:46;;;;;;;4.50;3.33;;;;;;;-144.32;100.00;68061.97;10350947;28;20042;-77
2022/12/26 12:17:02;;;;;;;3.15;1.98;;;;;;;-144.32;100.00;68061.97;10347887;28;20041;-77
2022/12/26 12:22:21;;;;;;;5.30;2.30;;;;;;;-144.32;100.00;68061.97;10341773;28;20050;-75
2022/12/26 12:27:27;;;;;;;5.15;3.53;;;;;;;-144.32;100.00;68061.97;10363522;28;20045;-75
2022/12/26 12:32:51;;;;;;;3.53;2.70;;;;;;;-144.32;100.00;68061.97;10352422;28;20517;-76
2022/12/26 12:38:01;;;;;;;4.23;2.80;;;;;;;-144.32;100.00;68061.97;10350612;28;20691;-76
2022/12/26 12:43:20;;;;;;;3.13;2.67;;;;;;;-144.32;100.00;68061.97;10350041;28;20045;-76
2022/12/26 12:48:45;;;;;;;4.38;3.10;;;;;;;-144.32;100.00;68061.97;10354950;28;20064;-76
2022/12/26 12:53:45;;;;;;;4.18;3.03;;;;;;;-144.32;100.00;68061.97;10358172;28;20037;-78
2022/12/26 12:59:34;;;;;;;4.07;1.90;;;;;;;-144.32;100.00;68061.97;10343253;28;20123;-77
2022/12/26 13:04:46;;;;;;;2.17;1.50;;;;;;;-144.32;100.00;68061.97;10337839;28;20105;-76
2022/12/26 13:10:01;;;;;;;2.70;1.50;;;;;;;-144.32;100.00;68061.97;10350076;28;20629;-76
2022/12/26 13:15:28;;;;;;;5.53;4.22;;;;;;;-144.32;100.00;68061.97;10347548;28;20042;-75
2022/12/26 13:20:33;;;;;;;2.63;1.70;;;;;;;-144.32;100.00;68061.97;10338677;28;20086;-76
2022/12/26 13:25:41;;;;;;;1.80;1.50;;;;;;;-144.32;100.00;68061.97;10346443;28;20046;-76
2022/12/26 13:30:41;;;;;;;2.17;1.90;;;;;;;-144.32;100.00;68061.97;10342500;28;20042;-77
2022/12/26 13:36:01;;;;;;;2.55;2.20;;;;;;;-144.32;100.00;68061.97;10356944;28;20045;-76
2022/12/26 13:46:49;;;;;;;4.67;2.20;;;;;;;-144.32;100.00;68061.97;10337999;28;20145;-75
2022/12/26 13:51:50;;;;;;;2.83;1.90;;;;;;;-144.32;100.00;68061.97;10360947;28;20046;-77
2022/12/26 13:57:11;;;;;;;9.52;6.28;;;;;;;-144.32;100.00;68061.97;10362918;28;20039;-75
2022/12/26 14:02:21;;;;;;;2.63;2.17;;;;;;;-144.32;100.00;68061.97;10362701;28;20046;-76
2022/12/26 14:07:45;;;;;;;3.30;2.20;;;;;;;-144.32;100.00;68061.97;10355798;28;20512;-79
2022/12/26 14:13:01;;;;;;;;;;;;;;;-144.32;100.00;68061.97;10349497;28;20116;-74
2022/12/26 14:18:40;;;;;;;5.32;2.50;;;;;;;-144.32;100.00;68061.97;10357588;28;19940;-77
2022/12/26 14:23:59;;;;;;;3.45;2.35;;;;;;;-144.32;100.00;68061.97;10352513;28;20074;-78
2022/12/26 14:29:08;;;;;;;3.13;2.10;;;;;;;-144.32;100.00;68061.97;10360111;28;20030;-77
2022/12/26 14:34:37;;;;;;;3.33;1.90;;;;;;;-144.32;100.00;68061.97;10347511;28;20073;-77
2022/12/26 14:39:41;;;;;;;4.45;2.88;;;;;;;-144.32;100.00;68061.97;10356443;28;20030;-78
2022/12/26 14:44:44;;;;;;;3.17;2.10;;;;;;;-144.32;100.00;68061.97;10365473;28;20049;-78
2022/12/26 14:49:45;;;;;;;2.20;2.00;;;;;;;-144.32;100.00;68061.97;10335113;28;20042;-78
2022/12/26 14:54:50;;;;;;;3.77;1.63;;;;;;;-144.32;100.00;68061.97;10359195;28;20050;-77
2022/12/26 15:00:21;;;;;;;3.20;2.00;;;;;;;-144.32;100.00;68061.97;10348629;28;20474;-77
2022/12/26 15:05:27;;;;;;;1.77;1.60;;;;;;;-144.32;100.00;68061.97;10359170;28;20061;-75
2022/12/26 15:10:49;;;;;;;3.25;1.98;;;;;;;-144.32;100.00;68061.97;10359603;28;20116;-76
2022/12/26 15:15:56;;;;;;;2.15;1.88;;;;;;;-144.32;100.00;68061.97;10353197;28;20466;-78
2022/12/26 15:21:27;;;;;;;6.35;3.92;;;;;;;-144.32;100.00;68061.97;10347292;28;20120;-77
2022/12/26 15:26:46;;;;;;;2.50;1.98;;;;;;;-144.32;100.00;68061.97;10359821;28;20073;-77
2022/12/26 15:32:05;;;;;;;3.30;2.33;;;;;;;-144.32;100.00;68061.97;10352893;28;20042;-77
2022/12/26 15:37:38;;;;;;;9.30;2.45;;;;;;;-144.32;100.00;68061.97;10354380;28;20042;-78
2022/12/26 15:43:16;;;;;;;3.78;2.38;;;;;;;-144.32;100.00;68061.97;10366363;28;20046;-78
2022/12/26 15:48:44;;;;;;;2.35;1.80;;;;;;;-144.32;100.00;68061.97;10351712;28;20052;-78
2022/12/26 15:54:19;;;;;;;5.78;1.85;;;;;;;-144.32;100.00;68061.97;10378837;28;20076;-77
2022/12/26 15:59:39;;;;;;;3.20;1.80;;;;;;;-144.32;100.00;68061.97;10382627;28;20048;-77
2022/12/26 16:04:50;;;;;;;5.15;2.88;;;;;;;-144.32;100.00;68061.97;10389568;28;20034;-77
2022/12/26 16:09:53;;;;;;;2.78;2.00;;;;;;;-144.32;100.00;68061.97;10363146;28;20445;-78
2022/12/26 16:15:01;;;;;;;;;;;;;;;-144.32;100.00;68061.97;10351663;28;20042;-76
2022/12/26 16:25:53;;;;;;;2.55;1.98;;;;;;;-144.32;100.00;68061.97;10350960;28;20046;-79
2022/12/26 16:30:55;;;;;;;3.83;2.28;;;;;;;-144.32;100.00;68061.97;10348300;28;20049;-77
2022/12/26 16:35:56;;;;;;;3.63;2.10;;;;;;;-144.32;100.00;68061.97;10352291;28;20681;-76
2022/12/26 16:40:59;;;;;;;2.15;1.88;;;;;;;-144.32;100.00;68061.97;10341065;28;20070;-73
2022/12/26 16:46:03;;;;;;;2.80;2.38;;;;;;;-144.32;100.00;68061.97;10346180;28;20049;-77
2022/12/26 16:51:25;;;;;;;3.13;2.13;;;;;;;-144.32;100.00;68061.97;10348177;28;20064;-77
2022/12/26 16:56:37;;;;;;;2.83;1.95;;;;;;;-144.32;100.00;68061.97;10353550;28;20037;-79
2022/12/26 17:01:38;;;;;;;2.00;1.80;;;;;;;-144.32;100.00;68061.97;10343182;28;20042;-79
2022/12/26 17:06:48;;;;;;;2.10;1.70;;;;;;;-144.32;100.00;68061.97;10353739;28;20567;-79
2022/12/26 17:11:54;;;;;;;4.40;2.20;;;;;;;-144.32;100.00;68061.97;10352971;28;20096;-78
2022/12/26 17:17:06;;;;;;;3.33;2.45;;;;;;;-144.32;100.00;68061.97;10351001;28;20085;-75
2022/12/26 17:22:31;;;;;;;2.30;2.10;;;;;;;-144.32;100.00;68061.97;10345544;28;20140;-76
2022/12/26 17:27:32;;;;;;;3.80;2.70;;;;;;;-144.32;100.00;68061.97;10348863;28;20069;-76
2022/12/26 17:32:38;;;;;;;6.63;3.17;;;;;;;-144.32;100.00;68061.97;10354852;28;20068;-76
2022/12/26 17:37:39;;;;;;;3.30;2.72;;;;;;;-144.32;100.00;68061.97;10360097;28;20046;-80
2022/12/26 17:42:50;;;;;;;5.15;3.22;;;;;;;-144.32;100.00;68061.97;10365380;28;20477;-79
2022/12/26 17:47:52;;;;;;;4.30;3.20;;;;;;;-144.32;100.00;68061.97;10366177;28;20401;-77
2022/12/26 17:52:53;;;;;;;5.43;3.55;;;;;;;-144.32;100.00;68061.97;10363004;28;20106;-81
2022/12/26 17:57:54;;;;;;;5.07;3.20;;;;;;;-144.32;100.00;68061.97;10376540;28;20048;-77
2022/12/26 18:02:55;;;;;;;3.92;2.83;;;;;;;-144.32;100.00;68061.97;10367513;28;20475;-78
2022/12/26 18:07:56;;;;;;;3.72;3.03;;;;;;;-144.32;100.00;68061.97;10357422;28;20193;-78
2022/12/26 18:12:57;;;;;;;4.50;3.45;;;;;;;-144.32;100.00;68061.97;10360741;28;20089;-85
2022/12/26 18:17:58;;;;;;;4.60;3.17;;;;;;;-144.32;100.00;68061.97;10364300;28;20046;-77
2022/12/26 18:22:58;;;;;;;4.25;3.30;;;;;;;-144.32;100.00;68061.97;10357646;28;20438;-75
2022/12/26 18:27:59;;;;;;;4.07;3.25;;;;;;;-144.32;100.00;68061.97;10358324;28;20555;-78
2022/12/26 18:33:01;;;;;;;3.10;2.80;;;;;;;-144.32;100.00;68061.97;10351351;28;20478;-78
2022/12/26 18:38:02;;;;;;;2.97;2.13;;;;;;;-144.32;100.00;68061.97;10351135;28;20043;-77
2022/12/26 18:43:04;;;;;;;3.90;2.40;;;;;;;-144.32;100.00;68061.97;10350327;28;20045;-82
2022/12/26 18:48:10;;;;;;;5.57;3.10;;;;;;;-144.32;100.00;68061.97;10357124;28;20073;-75
2022/12/26 18:53:11;;;;;;;6.13;3.70;;;;;;;-144.32;100.00;68061.97;10352208;28;20033;-76
2022/12/26 18:58:12;;;;;;;3.10;1.70;;;;;;;-144.32;100.00;68061.97;10342906;28;20045;-76
2022/12/26 19:03:13;;;;;;;1.60;1.10;;;;;;;-144.32;100.00;68061.97;10352292;28;20050;-76
2022/12/26 19:08:13;;;;;;;2.65;1.30;;;;;;;-144.32;100.00;68061.97;10353273;28;20042;-76
2022/12/26 19:13:14;;;;;;;2.72;1.63;;;;;;;-144.32;100.00;68061.97;10334819;28;20070;-76
2022/12/26 19:18:14;;;;;;;1.98;1.23;;;;;;;-144.32;100.00;68061.97;10347930;28;20042;-78
2022/12/26 19:23:16;;;;;;;1.67;1.35;;;;;;;-144.32;100.00;68061.97;10352533;28;20081;-78
2022/12/26 19:28:17;;;;;;;2.07;1.43;;;;;;;-144.32;100.00;68061.97;10347125;28;20206;-78
2022/12/26 19:33:18;;;;;;;1.83;1.10;;;;;;;-144.32;100.00;68061.97;10350811;28;20054;-77
2022/12/26 19:38:20;;;;;;;2.35;1.30;;;;;;;-144.32;100.00;68061.97;10356370;28;20378;-77
2022/12/26 19:43:20;;;;;;;2.35;1.00;;;;;;;-144.32;100.00;68061.97;10354733;28;20038;-78
2022/12/26 19:48:21;;;;;;;1.08;0.90;;;;;;;-144.32;100.00;68061.97;10350607;28;20498;-77
2022/12/26 19:53:22;;;;;;;1.23;1.13;;;;;;;-144.32;100.00;68061.97;10351271;28;20042;-80
2022/12/26 19:58:23;;;;;;;2.10;1.20;;;;;;;-144.32;100.00;68061.97;10348032;28;20056;-79
2022/12/26 20:03:23;;;;;;;1.58;1.38;;;;;;;-144.32;100.00;68061.97;10349968;28;20046;-78
2022/12/26 20:08:24;;;;;;;1.02;0.80;;;;;;;-144.32;100.00;68061.97;10351492;28;20050;-79
2022/12/26 20:13:24;;;;;;;1.88;1.10;;;;;;;-144.32;100.00;68061.97;10352689;28;20095;-77
2022/12/26 20:18:25;;;;;;;1.95;1.20;;;;;;;-144.32;100.00;68061.97;10354905;28;20046;-77
2022/12/26 20:23:26;;;;;;;3.00;1.40;;;;;;;-144.32;100.00;68061.97;10364898;28;20038;-81
2022/12/26 20:28:29;;;;;;;3.92;1.70;;;;;;;-144.32;100.00;68061.97;10357263;28;20050;-80
2022/12/26 20:33:32;;;;;;;2.17;1.50;;;;;;;-144.32;100.00;68061.97;10380695;28;20057;-80
2022/12/26 20:38:34;;;;;;;1.37;1.00;;;;;;;-144.32;100.00;68061.97;10373166;28;20093;-79
2022/12/26 20:43:36;;;;;;;1.87;1.37;;;;;;;-144.32;100.00;68061.97;10373200;28;20104;-80
2022/12/26 20:48:37;;;;;;;1.30;1.20;;;;;;;-144.32;100.00;68061.97;10375894;28;20081;-79
2022/12/26 20:53:37;;;;;;;2.60;1.70;;;;;;;-144.32;100.00;68061.97;10376799;28;20049;-78
2022/12/26 20:58:38;;;;;;;3.83;1.52;;;;;;;-144.32;100.00;68061.97;10353625;28;20062;-77
2022/12/26 21:03:40;;;;;;;1.38;1.20;;;;;;;-144.32;100.00;68061.97;10348854;28;20061;-78
2022/12/26 21:08:44;;;;;;;2.17;1.10;;;;;;;-144.32;100.00;68061.97;10349264;28;20045;-77
2022/12/26 21:13:46;;;;;;;1.40;1.20;;;;;;;-144.32;100.00;68061.97;10353679;28;20050;-77
2022/12/26 21:18:47;;;;;;;2.28;1.30;;;;;;;-144.32;100.00;68061.97;10367044;28;20102;-78
2022/12/26 21:23:48;;;;;;;1.77;1.30;;;;;;;-144.32;100.00;68061.97;10345138;28;20048;-80
2022/12/26 21:28:53;;;;;;;2.88;1.25;;;;;;;-144.32;100.00;68061.97;10341899;28;20045;-77
2022/12/26 21:33:55;;;;;;;1.48;1.17;;;;;;;-144.32;100.00;68061.97;10338118;28;20057;-78
2022/12/26 21:38:56;;;;;;;1.42;0.90;;;;;;;-144.32;100.00;68061.97;10348645;28;20639;-79
2022/12/26 21:43:57;;;;;;;1.88;1.27;;;;;;;-144.32;100.00;68061.97;10345108;28;20764;-78
2022/12/26 21:48:59;;;;;;;2.25;0.95;;;;;;;-144.32;100.00;68061.97;10343846;28;20054;-79
2022/12/26 22:00:06;;;;;;;3.70;0.90;;;;;;;-144.32;100.00;68061.97;10344153;28;20052;-78
2022/12/26 22:04:41;;;;;;;2.60;1.17;;;;;;;-144.32;100.00;68061.97;10349307;28;20062;-79
2022/12/26 22:09:42;;;;;;;1.25;0.80;;;;;;;-144.32;100.00;68061.97;10357775;28;20044;-78
2022/12/26 22:14:43;;;;;;;2.67;1.33;;;;;;;-144.32;100.00;68061.97;10350990;28;20050;-78
2022/12/26 22:19:44;;;;;;;1.10;0.98;;;;;;;-144.32;100.00;68061.97;10339559;28;20100;-78
2022/12/26 22:24:44;;;;;;;2.67;0.90;;;;;;;-144.32;100.00;68061.97;10347018;28;20077;-79
2022/12/26 22:29:45;;;;;;;1.23;1.08;;;;;;;-144.32;100.00;68061.97;10351990;28;20132;-77
2022/12/26 22:34:45;;;;;;;1.20;0.90;;;;;;;-144.32;100.00;68061.97;10352715;28;20147;-78
2022/12/26 22:39:46;;;;;;;1.55;1.10;;;;;;;-144.32;100.00;68061.97;10356079;28;20047;-78
2022/12/26 22:44:47;;;;;;;1.73;1.02;;;;;;;-144.32;100.00;68061.97;10355940;28;20403;-79
2022/12/26 22:49:49;;;;;;;2.10;1.30;;;;;;;-144.32;100.00;68061.97;10364827;28;20053;-79
2022/12/26 22:54:51;;;;;;;2.55;1.00;;;;;;;-144.32;100.00;68061.97;10351460;28;20057;-79
2022/12/26 22:59:51;;;;;;;1.08;0.98;;;;;;;-144.32;100.00;68061.97;10354297;28;20049;-78
2022/12/26 23:04:53;;;;;;;4.78;2.80;;;;;;;-144.32;100.00;68061.97;10344460;28;20454;-77
2022/12/26 23:09:59;;;;;;;1.38;1.25;;;;;;;-144.32;100.00;68061.97;10350694;28;20034;-78
2022/12/26 23:14:59;;;;;;;0.75;0.70;;;;;;;-144.32;100.00;68061.97;10351766;28;20145;-78
2022/12/26 23:25:20;;;;;;;0.50;0.50;;;;;;;-144.32;100.00;68061.97;10347594;28;20037;-78
2022/12/26 23:30:22;;;;;;;0.98;0.70;;;;;;;-144.32;100.00;68061.97;10351286;28;20117;-77
2022/12/26 23:35:23;;;;;;;2.00;0.88;;;;;;;-144.32;100.00;68061.97;10356866;28;20050;-79
2022/12/26 23:40:24;;;;;;;2.65;0.70;;;;;;;-144.32;100.00;68061.97;10350704;28;20121;-77
2022/12/26 23:45:24;;;;;;;1.02;0.70;;;;;;;-144.32;100.00;68061.97;10349946;28;20048;-77
2022/12/26 23:50:25;;;;;;;2.05;0.88;;;;;;;-144.32;100.00;68061.97;10345640;28;20133;-79
2022/12/26 23:55:26;;;;;;;1.10;0.60;;;;;;;-144.32;100.00;68061.97;10347604;28;20076;-79
